sensor_id;sensor_type;location;lat;lon;timestamp;temperature;humidity
32660;DHT22;19064;47.912;12.308;2023-09-19T00:00:56;15.20;99.90
32660;DHT22;19064;47.912;12.308;2023-09-19T00:03:23;15.30;99.90
32660;DHT22;19064;47.912;12.308;2023-09-19T00:05:52;15.20;99.90
32660;DHT22;19064;47.912;12.308;2023-09-19T00:08:21;15.10;99.90
32660;DHT22;19064;47.912;12.308;2023-09-19T00:10:50;15.10;99.90
32660;DHT22;19064;47.912;12.308;2023-09-19T00:13:19;15.00;99.90
32660;DHT22;19064;47.912;12.308;2023-09-19T00:15:47;14.90;99.90
32660;DHT22;19064;47.912;12.308;2023-09-19T00:18:15;14.90;99.90
32660;DHT22;19064;47.912;12.308;2023-09-19T00:20:42;14.80;99.90
32660;DHT22;19064;47.912;12.308;2023-09-19T00:23:14;14.80;99.90
32660;DHT22;19064;47.912;12.308;2023-09-19T00:25:41;14.80;99.90
32660;DHT22;19064;47.912;12.308;2023-09-19T00:28:08;14.80;99.90
32660;DHT22;19064;47.912;12.308;2023-09-19T00:30:35;14.80;99.90
32660;DHT22;19064;47.912;12.308;2023-09-19T00:33:04;14.80;99.90
32660;DHT22;19064;47.912;12.308;2023-09-19T00:35:33;14.90;99.90
32660;DHT22;19064;47.912;12.308;2023-09-19T00:38:00;14.90;99.90
32660;DHT22;19064;47.912;12.308;2023-09-19T00:40:28;14.80;99.90
32660;DHT22;19064;47.912;12.308;2023-09-19T00:42:57;14.90;99.90
32660;DHT22;19064;47.912;12.308;2023-09-19T00:45:25;14.80;99.90
32660;DHT22;19064;47.912;12.308;2023-09-19T00:47:53;14.70;99.90
32660;DHT22;19064;47.912;12.308;2023-09-19T00:50:23;14.70;99.90
32660;DHT22;19064;47.912;12.308;2023-09-19T00:52:53;14.70;99.90
32660;DHT22;19064;47.912;12.308;2023-09-19T00:55:23;14.70;99.90
32660;DHT22;19064;47.912;12.308;2023-09-19T00:57:52;14.80;99.90
32660;DHT22;19064;47.912;12.308;2023-09-19T01:00:19;14.80;99.90
32660;DHT22;19064;47.912;12.308;2023-09-19T01:02:47;14.80;99.90
32660;DHT22;19064;47.912;12.308;2023-09-19T01:05:14;14.90;99.90
32660;DHT22;19064;47.912;12.308;2023-09-19T01:07:41;15.00;99.90
32660;DHT22;19064;47.912;12.308;2023-09-19T01:10:12;15.00;99.90
32660;DHT22;19064;47.912;12.308;2023-09-19T01:12:50;15.10;99.90
32660;DHT22;19064;47.912;12.308;2023-09-19T01:15:28;15.00;99.90
32660;DHT22;19064;47.912;12.308;2023-09-19T01:18:04;15.00;99.90
32660;DHT22;19064;47.912;12.308;2023-09-19T01:20:40;15.00;99.90
32660;DHT22;19064;47.912;12.308;2023-09-19T01:23:15;15.00;99.90
32660;DHT22;19064;47.912;12.308;2023-09-19T01:26:06;15.10;99.90
32660;DHT22;19064;47.912;12.308;2023-09-19T01:28:45;15.20;99.90
32660;DHT22;19064;47.912;12.308;2023-09-19T01:31:21;15.10;99.90
32660;DHT22;19064;47.912;12.308;2023-09-19T01:33:58;15.30;99.90
32660;DHT22;19064;47.912;12.308;2023-09-19T01:36:30;15.20;99.90
32660;DHT22;19064;47.912;12.308;2023-09-19T01:39:00;15.20;99.90
32660;DHT22;19064;47.912;12.308;2023-09-19T01:41:45;15.10;99.90
32660;DHT22;19064;47.912;12.308;2023-09-19T01:44:22;15.10;99.90
32660;DHT22;19064;47.912;12.308;2023-09-19T01:46:55;15.20;99.90
32660;DHT22;19064;47.912;12.308;2023-09-19T01:49:33;15.30;99.90
32660;DHT22;19064;47.912;12.308;2023-09-19T01:52:10;15.20;99.90
32660;DHT22;19064;47.912;12.308;2023-09-19T01:54:45;15.10;99.90
32660;DHT22;19064;47.912;12.308;2023-09-19T01:57:17;15.10;99.90
32660;DHT22;19064;47.912;12.308;2023-09-19T01:59:50;15.00;99.90
32660;DHT22;19064;47.912;12.308;2023-09-19T02:02:20;15.10;99.90
32660;DHT22;19064;47.912;12.308;2023-09-19T02:04:48;15.00;99.90
32660;DHT22;19064;47.912;12.308;2023-09-19T02:07:16;15.10;99.90
32660;DHT22;19064;47.912;12.308;2023-09-19T02:09:43;15.10;99.90
32660;DHT22;19064;47.912;12.308;2023-09-19T02:12:10;15.10;99.90
32660;DHT22;19064;47.912;12.308;2023-09-19T02:14:37;15.20;99.90
32660;DHT22;19064;47.912;12.308;2023-09-19T02:17:04;15.40;99.90
32660;DHT22;19064;47.912;12.308;2023-09-19T02:19:34;15.40;99.90
32660;DHT22;19064;47.912;12.308;2023-09-19T02:22:02;15.40;99.90
32660;DHT22;19064;47.912;12.308;2023-09-19T02:24:32;15.50;99.90
32660;DHT22;19064;47.912;12.308;2023-09-19T02:27:00;15.60;99.90
32660;DHT22;19064;47.912;12.308;2023-09-19T02:29:29;15.60;99.90
32660;DHT22;19064;47.912;12.308;2023-09-19T02:31:56;15.70;99.90
32660;DHT22;19064;47.912;12.308;2023-09-19T02:34:24;15.70;99.90
32660;DHT22;19064;47.912;12.308;2023-09-19T02:36:53;15.70;99.90
32660;DHT22;19064;47.912;12.308;2023-09-19T02:39:20;15.70;99.90
32660;DHT22;19064;47.912;12.308;2023-09-19T02:41:47;15.60;99.90
32660;DHT22;19064;47.912;12.308;2023-09-19T02:44:14;15.70;99.90
32660;DHT22;19064;47.912;12.308;2023-09-19T02:46:41;15.70;99.90
32660;DHT22;19064;47.912;12.308;2023-09-19T02:49:08;15.70;99.90
32660;DHT22;19064;47.912;12.308;2023-09-19T02:51:35;15.70;99.90
32660;DHT22;19064;47.912;12.308;2023-09-19T02:54:04;15.60;99.90
32660;DHT22;19064;47.912;12.308;2023-09-19T02:56:31;15.70;99.90
32660;DHT22;19064;47.912;12.308;2023-09-19T02:58:59;15.60;99.90
32660;DHT22;19064;47.912;12.308;2023-09-19T03:01:26;15.50;99.90
32660;DHT22;19064;47.912;12.308;2023-09-19T03:03:54;15.60;99.90
32660;DHT22;19064;47.912;12.308;2023-09-19T03:06:21;15.50;99.90
32660;DHT22;19064;47.912;12.308;2023-09-19T03:08:49;15.50;99.90
32660;DHT22;19064;47.912;12.308;2023-09-19T03:11:18;15.50;99.90
32660;DHT22;19064;47.912;12.308;2023-09-19T03:13:51;15.60;99.90
32660;DHT22;19064;47.912;12.308;2023-09-19T03:16:18;15.40;99.90
32660;DHT22;19064;47.912;12.308;2023-09-19T03:18:47;15.30;99.90
32660;DHT22;19064;47.912;12.308;2023-09-19T03:21:14;15.30;99.90
32660;DHT22;19064;47.912;12.308;2023-09-19T03:23:41;15.30;99.90
32660;DHT22;19064;47.912;12.308;2023-09-19T03:26:11;15.30;99.90
32660;DHT22;19064;47.912;12.308;2023-09-19T03:28:40;15.20;99.90
32660;DHT22;19064;47.912;12.308;2023-09-19T03:31:08;15.30;99.90
32660;DHT22;19064;47.912;12.308;2023-09-19T03:33:35;15.40;99.90
32660;DHT22;19064;47.912;12.308;2023-09-19T03:36:03;15.40;99.90
32660;DHT22;19064;47.912;12.308;2023-09-19T03:38:31;15.40;99.90
32660;DHT22;19064;47.912;12.308;2023-09-19T03:40:59;15.40;99.90
32660;DHT22;19064;47.912;12.308;2023-09-19T03:43:26;15.40;99.90
32660;DHT22;19064;47.912;12.308;2023-09-19T03:45:54;15.40;99.90
32660;DHT22;19064;47.912;12.308;2023-09-19T03:48:21;15.50;99.90
32660;DHT22;19064;47.912;12.308;2023-09-19T03:50:48;15.40;99.90
32660;DHT22;19064;47.912;12.308;2023-09-19T03:53:15;15.50;99.90
32660;DHT22;19064;47.912;12.308;2023-09-19T03:55:44;15.40;99.90
32660;DHT22;19064;47.912;12.308;2023-09-19T03:58:11;15.50;99.90
32660;DHT22;19064;47.912;12.308;2023-09-19T04:00:38;15.50;99.90
32660;DHT22;19064;47.912;12.308;2023-09-19T04:03:08;15.60;99.90
32660;DHT22;19064;47.912;12.308;2023-09-19T04:05:36;15.60;99.90
32660;DHT22;19064;47.912;12.308;2023-09-19T04:08:03;15.70;99.90
32660;DHT22;19064;47.912;12.308;2023-09-19T04:10:30;15.60;99.90
32660;DHT22;19064;47.912;12.308;2023-09-19T04:12:57;15.60;99.90
32660;DHT22;19064;47.912;12.308;2023-09-19T04:15:24;15.70;99.90
32660;DHT22;19064;47.912;12.308;2023-09-19T04:17:51;15.60;99.90
32660;DHT22;19064;47.912;12.308;2023-09-19T04:20:20;15.80;99.90
32660;DHT22;19064;47.912;12.308;2023-09-19T04:22:48;15.80;99.90
32660;DHT22;19064;47.912;12.308;2023-09-19T04:25:15;15.90;99.90
32660;DHT22;19064;47.912;12.308;2023-09-19T04:27:42;15.90;99.90
32660;DHT22;19064;47.912;12.308;2023-09-19T04:30:11;15.90;99.90
32660;DHT22;19064;47.912;12.308;2023-09-19T04:32:38;15.90;99.90
32660;DHT22;19064;47.912;12.308;2023-09-19T04:35:07;15.90;99.90
32660;DHT22;19064;47.912;12.308;2023-09-19T04:37:37;16.00;99.90
32660;DHT22;19064;47.912;12.308;2023-09-19T04:40:06;16.00;99.90
32660;DHT22;19064;47.912;12.308;2023-09-19T04:42:38;15.90;99.90
32660;DHT22;19064;47.912;12.308;2023-09-19T04:45:06;15.90;99.90
32660;DHT22;19064;47.912;12.308;2023-09-19T04:47:35;15.90;99.90
32660;DHT22;19064;47.912;12.308;2023-09-19T04:50:05;15.90;99.90
32660;DHT22;19064;47.912;12.308;2023-09-19T04:52:32;15.90;99.90
32660;DHT22;19064;47.912;12.308;2023-09-19T04:55:01;15.90;99.90
32660;DHT22;19064;47.912;12.308;2023-09-19T04:57:30;15.90;99.90
32660;DHT22;19064;47.912;12.308;2023-09-19T04:59:56;15.90;99.90
32660;DHT22;19064;47.912;12.308;2023-09-19T05:02:24;15.90;99.90
32660;DHT22;19064;47.912;12.308;2023-09-19T05:04:51;15.90;99.90
32660;DHT22;19064;47.912;12.308;2023-09-19T05:07:19;15.90;99.90
32660;DHT22;19064;47.912;12.308;2023-09-19T05:09:47;15.80;99.90
32660;DHT22;19064;47.912;12.308;2023-09-19T05:12:15;15.80;99.90
32660;DHT22;19064;47.912;12.308;2023-09-19T05:14:43;15.90;99.90
32660;DHT22;19064;47.912;12.308;2023-09-19T05:17:10;15.90;99.90
32660;DHT22;19064;47.912;12.308;2023-09-19T05:19:37;15.80;99.90
32660;DHT22;19064;47.912;12.308;2023-09-19T05:22:04;15.80;99.90
32660;DHT22;19064;47.912;12.308;2023-09-19T05:24:32;15.80;99.90
32660;DHT22;19064;47.912;12.308;2023-09-19T05:26:59;15.90;99.90
32660;DHT22;19064;47.912;12.308;2023-09-19T05:29:27;15.90;99.90
32660;DHT22;19064;47.912;12.308;2023-09-19T05:31:54;15.90;99.90
32660;DHT22;19064;47.912;12.308;2023-09-19T05:34:21;15.90;99.90
32660;DHT22;19064;47.912;12.308;2023-09-19T05:36:49;15.90;99.90
32660;DHT22;19064;47.912;12.308;2023-09-19T05:39:17;16.00;99.90
32660;DHT22;19064;47.912;12.308;2023-09-19T05:41:44;15.90;99.90
32660;DHT22;19064;47.912;12.308;2023-09-19T05:44:13;15.80;99.90
32660;DHT22;19064;47.912;12.308;2023-09-19T05:46:41;16.00;99.90
32660;DHT22;19064;47.912;12.308;2023-09-19T05:49:08;15.90;99.90
32660;DHT22;19064;47.912;12.308;2023-09-19T05:51:35;16.00;99.90
32660;DHT22;19064;47.912;12.308;2023-09-19T05:54:02;15.90;99.90
32660;DHT22;19064;47.912;12.308;2023-09-19T05:56:30;16.00;99.90
32660;DHT22;19064;47.912;12.308;2023-09-19T05:58:57;16.10;99.90
32660;DHT22;19064;47.912;12.308;2023-09-19T06:01:25;16.20;99.90
32660;DHT22;19064;47.912;12.308;2023-09-19T06:03:54;16.20;99.90
32660;DHT22;19064;47.912;12.308;2023-09-19T06:06:21;16.30;99.90
32660;DHT22;19064;47.912;12.308;2023-09-19T06:08:49;16.20;99.90
32660;DHT22;19064;47.912;12.308;2023-09-19T06:11:16;16.30;99.90
32660;DHT22;19064;47.912;12.308;2023-09-19T06:13:46;16.30;99.90
32660;DHT22;19064;47.912;12.308;2023-09-19T06:16:13;16.40;99.90
32660;DHT22;19064;47.912;12.308;2023-09-19T06:18:40;16.40;99.90
32660;DHT22;19064;47.912;12.308;2023-09-19T06:21:08;16.50;99.90
32660;DHT22;19064;47.912;12.308;2023-09-19T06:23:35;16.50;99.90
32660;DHT22;19064;47.912;12.308;2023-09-19T06:26:02;16.50;99.90
32660;DHT22;19064;47.912;12.308;2023-09-19T06:28:32;16.50;99.90
32660;DHT22;19064;47.912;12.308;2023-09-19T06:30:58;16.60;99.90
32660;DHT22;19064;47.912;12.308;2023-09-19T06:33:26;16.60;99.90
32660;DHT22;19064;47.912;12.308;2023-09-19T06:35:52;16.60;99.90
32660;DHT22;19064;47.912;12.308;2023-09-19T06:38:26;16.60;99.90
32660;DHT22;19064;47.912;12.308;2023-09-19T06:40:53;16.60;99.90
32660;DHT22;19064;47.912;12.308;2023-09-19T06:43:21;16.70;99.90
32660;DHT22;19064;47.912;12.308;2023-09-19T06:45:48;16.80;99.90
32660;DHT22;19064;47.912;12.308;2023-09-19T06:48:17;16.70;99.90
32660;DHT22;19064;47.912;12.308;2023-09-19T06:50:44;16.70;99.90
32660;DHT22;19064;47.912;12.308;2023-09-19T06:53:10;16.80;99.90
32660;DHT22;19064;47.912;12.308;2023-09-19T06:55:39;16.80;99.90
32660;DHT22;19064;47.912;12.308;2023-09-19T06:58:05;16.70;99.90
32660;DHT22;19064;47.912;12.308;2023-09-19T07:00:33;16.80;99.90
32660;DHT22;19064;47.912;12.308;2023-09-19T07:03:03;16.90;99.90
32660;DHT22;19064;47.912;12.308;2023-09-19T07:05:36;16.90;99.90
32660;DHT22;19064;47.912;12.308;2023-09-19T07:08:05;16.90;99.90
32660;DHT22;19064;47.912;12.308;2023-09-19T07:10:32;16.90;99.90
32660;DHT22;19064;47.912;12.308;2023-09-19T07:13:02;17.00;99.90
32660;DHT22;19064;47.912;12.308;2023-09-19T07:15:31;17.00;99.90
32660;DHT22;19064;47.912;12.308;2023-09-19T07:18:05;17.00;99.90
32660;DHT22;19064;47.912;12.308;2023-09-19T07:20:32;17.10;99.90
32660;DHT22;19064;47.912;12.308;2023-09-19T07:22:59;17.00;99.90
32660;DHT22;19064;47.912;12.308;2023-09-19T07:25:26;17.10;99.90
32660;DHT22;19064;47.912;12.308;2023-09-19T07:27:55;17.20;99.90
32660;DHT22;19064;47.912;12.308;2023-09-19T07:30:27;17.20;99.90
32660;DHT22;19064;47.912;12.308;2023-09-19T07:32:53;17.30;99.90
32660;DHT22;19064;47.912;12.308;2023-09-19T07:35:20;17.40;99.90
32660;DHT22;19064;47.912;12.308;2023-09-19T07:37:47;17.40;99.90
32660;DHT22;19064;47.912;12.308;2023-09-19T07:40:15;17.50;99.90
32660;DHT22;19064;47.912;12.308;2023-09-19T07:42:42;17.50;99.90
32660;DHT22;19064;47.912;12.308;2023-09-19T07:45:10;17.60;99.90
32660;DHT22;19064;47.912;12.308;2023-09-19T07:47:44;17.70;99.90
32660;DHT22;19064;47.912;12.308;2023-09-19T07:50:10;17.70;99.90
32660;DHT22;19064;47.912;12.308;2023-09-19T07:52:37;17.80;99.90
32660;DHT22;19064;47.912;12.308;2023-09-19T07:55:05;17.90;99.90
32660;DHT22;19064;47.912;12.308;2023-09-19T07:57:34;18.00;99.90
32660;DHT22;19064;47.912;12.308;2023-09-19T08:00:01;18.10;99.90
32660;DHT22;19064;47.912;12.308;2023-09-19T08:02:30;18.20;99.90
32660;DHT22;19064;47.912;12.308;2023-09-19T08:05:02;18.20;99.90
32660;DHT22;19064;47.912;12.308;2023-09-19T08:07:31;18.30;99.90
32660;DHT22;19064;47.912;12.308;2023-09-19T08:09:58;18.50;99.90
32660;DHT22;19064;47.912;12.308;2023-09-19T08:12:25;18.70;99.90
32660;DHT22;19064;47.912;12.308;2023-09-19T08:14:52;18.70;99.90
32660;DHT22;19064;47.912;12.308;2023-09-19T08:17:20;18.80;99.90
32660;DHT22;19064;47.912;12.308;2023-09-19T08:19:48;18.80;99.90
32660;DHT22;19064;47.912;12.308;2023-09-19T08:22:19;18.80;99.90
32660;DHT22;19064;47.912;12.308;2023-09-19T08:24:47;18.80;99.90
32660;DHT22;19064;47.912;12.308;2023-09-19T08:27:14;19.00;99.90
32660;DHT22;19064;47.912;12.308;2023-09-19T08:29:43;19.00;99.90
32660;DHT22;19064;47.912;12.308;2023-09-19T08:32:10;19.10;99.90
32660;DHT22;19064;47.912;12.308;2023-09-19T08:34:37;19.20;99.90
32660;DHT22;19064;47.912;12.308;2023-09-19T08:37:04;19.30;99.90
32660;DHT22;19064;47.912;12.308;2023-09-19T08:39:32;19.40;99.90
32660;DHT22;19064;47.912;12.308;2023-09-19T08:42:02;19.50;99.90
32660;DHT22;19064;47.912;12.308;2023-09-19T08:44:30;19.40;99.90
32660;DHT22;19064;47.912;12.308;2023-09-19T08:47:06;19.10;99.90
32660;DHT22;19064;47.912;12.308;2023-09-19T08:49:41;19.10;99.90
32660;DHT22;19064;47.912;12.308;2023-09-19T08:52:19;19.10;99.90
32660;DHT22;19064;47.912;12.308;2023-09-19T08:54:49;19.00;99.90
32660;DHT22;19064;47.912;12.308;2023-09-19T08:57:18;19.00;99.90
32660;DHT22;19064;47.912;12.308;2023-09-19T08:59:47;19.00;99.90
32660;DHT22;19064;47.912;12.308;2023-09-19T09:02:15;19.00;99.90
32660;DHT22;19064;47.912;12.308;2023-09-19T09:04:45;19.10;99.90
32660;DHT22;19064;47.912;12.308;2023-09-19T09:07:13;19.10;99.90
32660;DHT22;19064;47.912;12.308;2023-09-19T09:09:41;19.10;99.90
32660;DHT22;19064;47.912;12.308;2023-09-19T09:12:13;18.90;99.90
32660;DHT22;19064;47.912;12.308;2023-09-19T09:14:40;19.00;99.90
32660;DHT22;19064;47.912;12.308;2023-09-19T09:17:11;19.30;99.90
32660;DHT22;19064;47.912;12.308;2023-09-19T09:19:38;19.40;99.90
32660;DHT22;19064;47.912;12.308;2023-09-19T09:22:08;19.40;99.90
32660;DHT22;19064;47.912;12.308;2023-09-19T09:24:35;19.30;99.90
32660;DHT22;19064;47.912;12.308;2023-09-19T09:27:04;19.40;99.90
32660;DHT22;19064;47.912;12.308;2023-09-19T09:29:45;19.20;99.90
32660;DHT22;19064;47.912;12.308;2023-09-19T09:32:19;19.30;99.90
32660;DHT22;19064;47.912;12.308;2023-09-19T09:34:48;19.50;99.90
32660;DHT22;19064;47.912;12.308;2023-09-19T09:37:16;19.70;99.90
32660;DHT22;19064;47.912;12.308;2023-09-19T09:39:54;19.70;99.90
32660;DHT22;19064;47.912;12.308;2023-09-19T09:42:30;19.90;99.90
32660;DHT22;19064;47.912;12.308;2023-09-19T09:45:17;19.90;99.90
32660;DHT22;19064;47.912;12.308;2023-09-19T09:47:47;19.90;99.90
32660;DHT22;19064;47.912;12.308;2023-09-19T09:50:26;20.10;99.90
32660;DHT22;19064;47.912;12.308;2023-09-19T09:53:03;20.10;99.90
32660;DHT22;19064;47.912;12.308;2023-09-19T09:55:57;19.80;99.90
32660;DHT22;19064;47.912;12.308;2023-09-19T09:58:25;19.90;99.90
32660;DHT22;19064;47.912;12.308;2023-09-19T10:00:56;20.20;99.90
32660;DHT22;19064;47.912;12.308;2023-09-19T10:03:34;20.30;99.90
32660;DHT22;19064;47.912;12.308;2023-09-19T10:06:06;20.40;99.90
32660;DHT22;19064;47.912;12.308;2023-09-19T10:09:01;20.60;99.90
32660;DHT22;19064;47.912;12.308;2023-09-19T10:11:42;20.80;99.90
32660;DHT22;19064;47.912;12.308;2023-09-19T10:14:11;20.90;99.90
32660;DHT22;19064;47.912;12.308;2023-09-19T10:16:45;21.10;99.90
32660;DHT22;19064;47.912;12.308;2023-09-19T10:19:16;21.00;99.90
32660;DHT22;19064;47.912;12.308;2023-09-19T10:21:48;21.00;99.90
32660;DHT22;19064;47.912;12.308;2023-09-19T10:24:17;21.10;99.90
32660;DHT22;19064;47.912;12.308;2023-09-19T10:26:45;21.00;99.90
32660;DHT22;19064;47.912;12.308;2023-09-19T10:29:13;21.00;99.90
32660;DHT22;19064;47.912;12.308;2023-09-19T10:31:43;21.10;99.90
32660;DHT22;19064;47.912;12.308;2023-09-19T10:34:14;21.10;99.90
32660;DHT22;19064;47.912;12.308;2023-09-19T10:36:45;21.20;99.90
32660;DHT22;19064;47.912;12.308;2023-09-19T10:39:14;21.20;99.90
32660;DHT22;19064;47.912;12.308;2023-09-19T10:41:49;21.30;99.90
32660;DHT22;19064;47.912;12.308;2023-09-19T10:44:21;21.30;99.90
32660;DHT22;19064;47.912;12.308;2023-09-19T10:46:52;21.10;99.90
32660;DHT22;19064;47.912;12.308;2023-09-19T10:49:19;21.00;99.90
32660;DHT22;19064;47.912;12.308;2023-09-19T10:51:48;20.80;99.90
32660;DHT22;19064;47.912;12.308;2023-09-19T10:54:18;20.70;99.90
32660;DHT22;19064;47.912;12.308;2023-09-19T10:56:49;20.60;99.90
32660;DHT22;19064;47.912;12.308;2023-09-19T10:59:19;20.40;99.90
32660;DHT22;19064;47.912;12.308;2023-09-19T11:01:47;20.10;99.90
32660;DHT22;19064;47.912;12.308;2023-09-19T11:04:31;19.80;99.90
32660;DHT22;19064;47.912;12.308;2023-09-19T11:07:02;19.60;99.90
32660;DHT22;19064;47.912;12.308;2023-09-19T11:09:46;19.50;99.90
32660;DHT22;19064;47.912;12.308;2023-09-19T11:12:48;19.40;99.90
32660;DHT22;19064;47.912;12.308;2023-09-19T11:18:52;19.30;99.90
32660;DHT22;19064;47.912;12.308;2023-09-19T11:21:52;19.30;99.90
32660;DHT22;19064;47.912;12.308;2023-09-19T11:24:29;19.50;99.90
32660;DHT22;19064;47.912;12.308;2023-09-19T11:27:10;19.60;99.90
32660;DHT22;19064;47.912;12.308;2023-09-19T11:29:39;19.80;99.90
32660;DHT22;19064;47.912;12.308;2023-09-19T11:32:06;19.80;99.90
32660;DHT22;19064;47.912;12.308;2023-09-19T11:34:45;19.90;99.90
32660;DHT22;19064;47.912;12.308;2023-09-19T11:40:37;20.30;99.90
32660;DHT22;19064;47.912;12.308;2023-09-19T11:43:29;20.40;99.90
32660;DHT22;19064;47.912;12.308;2023-09-19T11:46:04;20.60;99.90
32660;DHT22;19064;47.912;12.308;2023-09-19T11:48:32;20.70;99.90
32660;DHT22;19064;47.912;12.308;2023-09-19T11:51:00;20.80;99.90
32660;DHT22;19064;47.912;12.308;2023-09-19T11:53:33;20.80;99.90
32660;DHT22;19064;47.912;12.308;2023-09-19T11:56:06;20.70;99.90
32660;DHT22;19064;47.912;12.308;2023-09-19T11:58:36;20.50;99.90
32660;DHT22;19064;47.912;12.308;2023-09-19T12:01:05;20.40;99.90
32660;DHT22;19064;47.912;12.308;2023-09-19T12:03:36;20.30;99.90
32660;DHT22;19064;47.912;12.308;2023-09-19T12:06:11;20.40;99.90
32660;DHT22;19064;47.912;12.308;2023-09-19T12:08:40;20.40;99.90
32660;DHT22;19064;47.912;12.308;2023-09-19T12:11:12;20.40;99.90
32660;DHT22;19064;47.912;12.308;2023-09-19T12:13:42;20.60;99.90
32660;DHT22;19064;47.912;12.308;2023-09-19T12:16:13;20.70;99.90
32660;DHT22;19064;47.912;12.308;2023-09-19T12:18:41;20.90;99.90
32660;DHT22;19064;47.912;12.308;2023-09-19T12:21:25;21.00;99.90
32660;DHT22;19064;47.912;12.308;2023-09-19T12:23:59;21.00;99.90
32660;DHT22;19064;47.912;12.308;2023-09-19T12:26:28;20.90;99.90
32660;DHT22;19064;47.912;12.308;2023-09-19T12:28:55;20.90;99.90
32660;DHT22;19064;47.912;12.308;2023-09-19T12:31:22;21.10;99.90
32660;DHT22;19064;47.912;12.308;2023-09-19T12:33:53;21.10;99.90
32660;DHT22;19064;47.912;12.308;2023-09-19T12:36:22;21.30;99.90
32660;DHT22;19064;47.912;12.308;2023-09-19T12:38:54;21.20;99.90
32660;DHT22;19064;47.912;12.308;2023-09-19T12:41:21;21.30;99.90
32660;DHT22;19064;47.912;12.308;2023-09-19T12:43:50;21.40;99.90
32660;DHT22;19064;47.912;12.308;2023-09-19T12:46:20;21.40;99.90
32660;DHT22;19064;47.912;12.308;2023-09-19T12:49:15;21.30;99.90
32660;DHT22;19064;47.912;12.308;2023-09-19T12:51:43;21.30;99.90
32660;DHT22;19064;47.912;12.308;2023-09-19T12:54:10;21.30;99.90
32660;DHT22;19064;47.912;12.308;2023-09-19T12:56:40;21.20;99.90
32660;DHT22;19064;47.912;12.308;2023-09-19T12:59:13;21.30;99.90
32660;DHT22;19064;47.912;12.308;2023-09-19T13:01:40;21.30;99.90
32660;DHT22;19064;47.912;12.308;2023-09-19T13:04:16;21.30;99.90
32660;DHT22;19064;47.912;12.308;2023-09-19T13:06:45;21.40;99.90
32660;DHT22;19064;47.912;12.308;2023-09-19T13:09:14;21.40;99.90
32660;DHT22;19064;47.912;12.308;2023-09-19T13:11:42;21.50;99.90
32660;DHT22;19064;47.912;12.308;2023-09-19T13:14:17;21.50;99.90
32660;DHT22;19064;47.912;12.308;2023-09-19T13:16:58;21.50;99.90
32660;DHT22;19064;47.912;12.308;2023-09-19T13:19:40;21.60;99.90
32660;DHT22;19064;47.912;12.308;2023-09-19T13:22:37;21.50;99.90
32660;DHT22;19064;47.912;12.308;2023-09-19T13:25:06;21.40;99.90
32660;DHT22;19064;47.912;12.308;2023-09-19T13:27:33;21.40;99.90
32660;DHT22;19064;47.912;12.308;2023-09-19T13:30:02;21.40;99.90
32660;DHT22;19064;47.912;12.308;2023-09-19T13:32:32;21.50;99.90
32660;DHT22;19064;47.912;12.308;2023-09-19T13:34:58;21.60;99.90
32660;DHT22;19064;47.912;12.308;2023-09-19T13:37:25;21.60;99.90
32660;DHT22;19064;47.912;12.308;2023-09-19T13:39:52;21.70;99.90
32660;DHT22;19064;47.912;12.308;2023-09-19T13:42:19;21.70;99.90
32660;DHT22;19064;47.912;12.308;2023-09-19T13:44:47;21.70;99.90
32660;DHT22;19064;47.912;12.308;2023-09-19T13:47:15;21.60;99.90
32660;DHT22;19064;47.912;12.308;2023-09-19T13:49:42;21.40;99.90
32660;DHT22;19064;47.912;12.308;2023-09-19T13:52:09;21.40;99.90
32660;DHT22;19064;47.912;12.308;2023-09-19T13:54:38;21.40;99.90
32660;DHT22;19064;47.912;12.308;2023-09-19T13:57:05;21.50;99.90
32660;DHT22;19064;47.912;12.308;2023-09-19T13:59:32;21.40;99.90
32660;DHT22;19064;47.912;12.308;2023-09-19T14:01:59;21.40;99.90
32660;DHT22;19064;47.912;12.308;2023-09-19T14:04:28;21.50;99.90
32660;DHT22;19064;47.912;12.308;2023-09-19T14:06:56;21.40;99.90
32660;DHT22;19064;47.912;12.308;2023-09-19T14:09:23;21.40;99.90
32660;DHT22;19064;47.912;12.308;2023-09-19T14:11:50;21.40;99.90
32660;DHT22;19064;47.912;12.308;2023-09-19T14:14:18;21.50;99.90
32660;DHT22;19064;47.912;12.308;2023-09-19T14:16:45;21.60;99.90
32660;DHT22;19064;47.912;12.308;2023-09-19T14:19:12;21.60;99.90
32660;DHT22;19064;47.912;12.308;2023-09-19T14:21:43;21.70;99.90
32660;DHT22;19064;47.912;12.308;2023-09-19T14:24:10;21.60;99.90
32660;DHT22;19064;47.912;12.308;2023-09-19T14:26:37;21.60;99.90
32660;DHT22;19064;47.912;12.308;2023-09-19T14:29:04;21.50;99.90
32660;DHT22;19064;47.912;12.308;2023-09-19T14:31:33;21.50;99.90
32660;DHT22;19064;47.912;12.308;2023-09-19T14:34:00;21.50;99.90
32660;DHT22;19064;47.912;12.308;2023-09-19T14:36:27;21.70;99.90
32660;DHT22;19064;47.912;12.308;2023-09-19T14:38:56;21.70;99.90
32660;DHT22;19064;47.912;12.308;2023-09-19T14:41:23;21.70;99.90
32660;DHT22;19064;47.912;12.308;2023-09-19T14:43:51;21.60;99.90
32660;DHT22;19064;47.912;12.308;2023-09-19T14:46:18;21.50;99.90
32660;DHT22;19064;47.912;12.308;2023-09-19T14:48:45;21.50;99.90
32660;DHT22;19064;47.912;12.308;2023-09-19T14:51:12;21.50;99.90
32660;DHT22;19064;47.912;12.308;2023-09-19T14:53:39;21.60;99.90
32660;DHT22;19064;47.912;12.308;2023-09-19T14:56:09;21.70;99.90
32660;DHT22;19064;47.912;12.308;2023-09-19T14:58:37;21.60;99.90
32660;DHT22;19064;47.912;12.308;2023-09-19T15:01:06;21.40;99.90
32660;DHT22;19064;47.912;12.308;2023-09-19T15:03:33;21.20;99.90
32660;DHT22;19064;47.912;12.308;2023-09-19T15:06:01;21.00;99.90
32660;DHT22;19064;47.912;12.308;2023-09-19T15:08:28;21.00;99.90
32660;DHT22;19064;47.912;12.308;2023-09-19T15:10:55;20.90;99.90
32660;DHT22;19064;47.912;12.308;2023-09-19T15:13:25;20.90;99.90
32660;DHT22;19064;47.912;12.308;2023-09-19T15:15:58;20.90;99.90
32660;DHT22;19064;47.912;12.308;2023-09-19T15:18:26;20.90;99.90
32660;DHT22;19064;47.912;12.308;2023-09-19T15:20:53;20.90;99.90
32660;DHT22;19064;47.912;12.308;2023-09-19T15:23:20;20.90;99.90
32660;DHT22;19064;47.912;12.308;2023-09-19T15:25:48;20.90;99.90
32660;DHT22;19064;47.912;12.308;2023-09-19T15:28:15;21.00;99.90
32660;DHT22;19064;47.912;12.308;2023-09-19T15:30:43;21.20;99.90
32660;DHT22;19064;47.912;12.308;2023-09-19T15:33:10;21.20;99.90
32660;DHT22;19064;47.912;12.308;2023-09-19T15:35:37;21.20;99.90
32660;DHT22;19064;47.912;12.308;2023-09-19T15:38:04;21.20;99.90